Time;durP1;ratioP1;P1;durP2;ratioP2;P2;SDS_P1;SDS_P2;PMS_P1;PMS_P2;Temp;Humidity;BMP_temperature;BMP_pressure;BME280_temperature;BME280_humidity;BME280_pressure;Samples;Min_cycle;Max_cycle;Signal;HPM_P1;HPM_P2
2022/02/24 00:01:44;;;;;;;;;;;3.60;70.00;;;2.02;65.65;96404.13;4985288;28;20029;-64
2022/02/24 00:04:10;;;;;;;;;;;3.60;70.50;;;2.00;66.00;96400.84;4985401;28;19925;-64
2022/02/24 00:06:36;;;;;;;;;;;3.60;70.60;;;2.01;65.40;96417.22;4968596;28;20202;-63
2022/02/24 00:09:02;;;;;;;;;;;3.60;71.30;;;1.96;65.34;96429.78;4984260;28;20259;-64
2022/02/24 00:11:28;;;;;;;;;;;3.60;71.70;;;1.99;65.09;96439.91;4984274;28;19933;-63
2022/02/24 00:13:53;;;;;;;;;;;3.60;71.10;;;1.94;64.84;96442.88;4986053;28;19932;-64
2022/02/24 00:16:19;;;;;;;;;;;3.50;71.30;;;1.93;65.49;96445.59;4999807;28;20464;-64
2022/02/24 00:18:45;;;;;;;;;;;3.50;71.20;;;1.90;65.10;96440.66;4984527;28;19933;-64
2022/02/24 00:21:10;;;;;;;;;;;3.50;71.00;;;1.89;65.47;96439.03;4984562;28;20011;-64
2022/02/24 00:23:36;;;;;;;;;;;3.50;70.80;;;1.88;65.33;96442.56;5018511;28;20397;-64
2022/02/24 00:26:02;;;;;;;;;;;3.50;70.70;;;1.85;65.09;96443.66;4989785;28;19922;-64
2022/02/24 00:28:27;;;;;;;;;;;3.40;70.80;;;1.83;65.82;96440.38;5004725;28;20130;-63
2022/02/24 00:30:53;;;;;;;;;;;3.40;70.80;;;1.78;66.06;96432.13;4990462;28;19922;-64
2022/02/24 00:33:19;;;;;;;;;;;3.40;70.80;;;1.78;65.68;96426.94;4988566;28;19928;-63
2022/02/24 00:35:44;;;;;;;;;;;3.40;71.00;;;1.77;65.29;96433.88;4990950;28;19957;-64
2022/02/24 00:38:10;;;;;;;;;;;3.40;70.60;;;1.73;64.70;96435.09;4985348;28;19951;-64
2022/02/24 00:40:36;;;;;;;;;;;3.40;70.70;;;1.70;64.87;96437.13;4987893;28;19944;-63
2022/02/24 00:43:01;;;;;;;;;;;3.30;70.70;;;1.68;65.50;96432.06;4964898;28;19922;-64
2022/02/24 00:45:27;;;;;;;;;;;3.30;71.00;;;1.64;65.36;96435.03;4996060;28;20322;-63
2022/02/24 00:47:53;;;;;;;;;;;3.30;70.90;;;1.62;65.01;96435.16;4988486;28;19922;-64
2022/02/24 00:50:19;;;;;;;;;;;3.30;70.80;;;1.60;65.65;96438.84;5016257;22;19929;-66
2022/02/24 00:52:44;;;;;;;;;;;3.20;70.90;;;1.59;66.15;96435.41;4999424;28;20468;-66
2022/02/24 00:55:10;;;;;;;;;;;3.20;71.00;;;1.57;65.57;96439.88;4988447;28;19928;-67
2022/02/24 00:57:36;;;;;;;;;;;3.20;71.10;;;1.54;65.69;96434.94;4977635;28;20288;-66
2022/02/24 01:00:02;;;;;;;;;;;3.20;71.20;;;1.51;65.96;96440.38;4990722;28;19971;-66
2022/02/24 01:02:27;;;;;;;;;;;3.20;71.20;;;1.49;65.96;96437.91;4998406;28;19964;-66
2022/02/24 01:04:53;;;;;;;;;;;3.20;71.30;;;1.49;65.66;96439.69;4971812;28;19940;-66
2022/02/24 01:07:19;;;;;;;;;;;3.10;71.30;;;1.45;66.46;96448.66;4996812;28;20374;-67
2022/02/24 01:09:44;;;;;;;;;;;3.10;71.90;;;1.44;67.03;96436.66;4984713;28;19921;-67
2022/02/24 01:12:10;;;;;;;;;;;3.10;72.00;;;1.41;66.50;96427.38;4990733;28;20308;-67
2022/02/24 01:14:36;;;;;;;;;;;3.10;71.90;;;1.37;66.60;96428.56;4976741;28;19982;-67
2022/02/24 01:17:02;;;;;;;;;;;3.10;71.90;;;1.39;66.75;96420.66;4993540;28;19932;-66
2022/02/24 01:19:28;;;;;;;;;;;3.10;72.10;;;1.37;67.59;96420.78;4993144;28;19944;-67
2022/02/24 01:21:54;;;;;;;;;;;3.10;72.30;;;1.35;66.91;96424.44;4993893;28;19989;-67
2022/02/24 01:24:19;;;;;;;;;;;3.00;72.50;;;1.28;68.18;96420.69;4992338;28;19921;-67
2022/02/24 01:26:45;;;;;;;;;;;2.80;73.60;;;1.28;68.11;96423.28;5026059;28;20277;-67
2022/02/24 01:29:11;;;;;;;;;;;2.90;73.60;;;1.28;68.02;96415.50;4993183;28;19922;-66
2022/02/24 01:31:36;;;;;;;;;;;2.90;73.60;;;1.26;67.61;96413.03;4976302;28;19925;-66
2022/02/24 01:34:02;;;;;;;;;;;3.00;73.40;;;1.29;67.90;96405.03;4976719;28;19977;-67
2022/02/24 01:36:28;;;;;;;;;;;3.00;73.20;;;1.30;67.83;96416.22;4975171;28;20377;-66
2022/02/24 01:38:54;;;;;;;;;;;3.00;72.80;;;1.29;67.50;96414.56;5025572;28;19926;-67
2022/02/24 01:41:20;;;;;;;;;;;3.10;72.70;;;1.27;68.11;96401.72;4992738;28;19929;-67
2022/02/24 01:43:46;;;;;;;;;;;3.00;72.60;;;1.28;67.85;96398.19;5025818;28;19926;-67
2022/02/24 01:46:12;;;;;;;;;;;3.00;72.80;;;1.25;67.87;96405.41;5008131;28;19928;-67
2022/02/24 01:48:38;;;;;;;;;;;2.90;73.90;;;1.22;68.89;96394.34;4992847;28;20162;-67
2022/02/24 01:51:04;;;;;;;;;;;2.90;74.70;;;1.23;69.29;96395.16;5009085;28;19925;-66
2022/02/24 01:53:29;;;;;;;;;;;2.90;74.70;;;1.21;69.60;96392.69;5025890;28;19921;-66
2022/02/24 01:55:55;;;;;;;;;;;2.90;75.00;;;1.21;69.27;96392.69;5024689;28;19925;-67
2022/02/24 01:58:22;;;;;;;;;;;2.90;75.10;;;1.21;70.31;96387.50;4992140;28;20288;-66
2022/02/24 02:00:47;;;;;;;;;;;2.90;74.90;;;1.20;68.70;96385.88;4992762;28;19948;-66
2022/02/24 02:03:13;;;;;;;;;;;2.90;75.10;;;1.15;70.21;96393.19;5025437;28;19963;-66
2022/02/24 02:05:39;;;;;;;;;;;2.80;75.60;;;1.14;69.92;96396.75;5008451;28;19933;-66
2022/02/24 02:08:05;;;;;;;;;;;2.80;75.50;;;1.15;69.63;96392.38;4992062;28;19928;-66
2022/02/24 02:10:31;;;;;;;;;;;2.80;75.40;;;1.12;69.35;96396.00;4975803;28;20250;-66
2022/02/24 02:12:56;;;;;;;;;;;2.80;75.20;;;1.09;69.71;96391.06;4992560;28;19932;-66
2022/02/24 02:15:22;;;;;;;;;;;2.70;75.40;;;1.08;71.69;96381.66;4991702;28;20041;-66
2022/02/24 02:17:48;;;;;;;;;;;2.70;75.50;;;1.00;70.43;96378.88;4992560;28;20039;-66
2022/02/24 02:20:13;;;;;;;;;;;2.60;76.20;;;0.94;69.16;96379.38;4992065;28;19991;-66
2022/02/24 02:22:39;;;;;;;;;;;2.50;76.30;;;0.88;69.65;96377.25;4991951;28;19926;-67
2022/02/24 02:25:06;;;;;;;;;;;2.40;76.90;;;0.82;70.65;96369.97;5008411;28;19925;-66
2022/02/24 02:27:32;;;;;;;;;;;2.40;77.20;;;0.81;69.88;96368.34;5006848;28;19925;-66
2022/02/24 02:29:57;;;;;;;;;;;2.40;76.90;;;0.76;71.72;96365.31;5008693;28;20412;-66
2022/02/24 02:32:24;;;;;;;;;;;2.30;77.20;;;0.73;72.03;96373.31;4974408;28;19929;-66
2022/02/24 02:34:49;;;;;;;;;;;2.30;77.40;;;0.69;70.86;96359.81;4992049;28;19922;-67
2022/02/24 02:37:15;;;;;;;;;;;2.30;77.50;;;0.66;71.82;96359.19;4991660;28;19925;-67
2022/02/24 02:39:41;;;;;;;;;;;2.30;77.70;;;0.67;71.85;96355.66;4975487;28;19926;-67
2022/02/24 02:42:06;;;;;;;;;;;2.50;77.30;;;0.70;nan;96360.63;4986864;28;19928;-67
2022/02/24 02:44:32;;;;;;;;;;;2.40;77.30;;;0.70;70.42;96351.09;5024949;28;20432;-67
2022/02/24 02:46:58;;;;;;;;;;;2.40;77.00;;;0.70;71.19;96356.25;4991912;28;20348;-67
2022/02/24 02:49:23;;;;;;;;;;;2.40;77.30;;;0.71;71.21;96362.25;4991794;28;19945;-67
2022/02/24 02:51:51;;;;;;;;;;;2.40;77.40;;;0.69;71.70;96346.03;5025192;28;19921;-68
2022/02/24 02:54:17;;;;;;;;;;;2.40;77.50;;;0.70;71.54;96355.44;5009040;28;20040;-67
2022/02/24 02:56:42;;;;;;;;;;;2.40;77.30;;;0.66;72.58;96348.84;4975848;28;19925;-68
2022/02/24 02:59:08;;;;;;;;;;;2.30;77.70;;;0.60;71.09;96348.38;5008097;28;19921;-68
2022/02/24 03:01:34;;;;;;;;;;;2.20;78.10;;;0.59;72.46;96344.16;4975605;28;19921;-68
2022/02/24 03:03:59;;;;;;;;;;;2.20;78.10;;;0.61;72.26;96342.28;4991983;28;19925;-69
2022/02/24 03:06:25;;;;;;;;;;;2.30;77.60;;;0.64;72.19;96345.56;5023597;28;19929;-67
2022/02/24 03:08:50;;;;;;;;;;;2.40;77.40;;;0.65;71.13;96342.03;4992436;28;19933;-68
2022/02/24 03:11:16;;;;;;;;;;;2.40;77.30;;;0.62;72.45;96337.91;5009639;28;19921;-67
2022/02/24 03:13:42;;;;;;;;;;;2.30;78.00;;;0.59;73.01;96336.38;4991044;28;19922;-67
2022/02/24 03:16:07;;;;;;;;;;;2.30;78.00;;;0.57;72.80;96335.69;5008261;28;19933;-67
2022/02/24 03:18:33;;;;;;;;;;;2.30;78.20;;;0.53;72.13;96331.72;5007917;28;20301;-67
2022/02/24 03:20:59;;;;;;;;;;;2.20;78.50;;;0.49;71.82;96319.97;5009488;28;19925;-67
2022/02/24 03:23:24;;;;;;;;;;;2.10;78.70;;;0.47;73.27;96323.63;5009628;28;19917;-67
2022/02/24 03:25:50;;;;;;;;;;;2.20;78.90;;;0.41;73.35;96322.31;5008892;28;20458;-67
2022/02/24 03:28:16;;;;;;;;;;;2.00;79.50;;;0.44;73.18;96319.47;4990983;28;19944;-67
2022/02/24 03:30:41;;;;;;;;;;;2.20;79.00;;;0.49;73.57;96313.97;4991821;28;19928;-67
2022/02/24 03:33:07;;;;;;;;;;;2.30;78.40;;;0.47;72.98;96314.09;4991165;28;19931;-67
2022/02/24 03:35:33;;;;;;;;;;;2.20;78.90;;;0.46;72.96;96320.22;4991344;28;20462;-67
2022/02/24 03:37:59;;;;;;;;;;;2.10;79.30;;;0.45;72.68;96321.13;5024178;28;19925;-67
2022/02/24 03:40:24;;;;;;;;;;;2.10;79.50;;;0.42;72.58;96308.44;4990974;28;19990;-67
2022/02/24 03:42:50;;;;;;;;;;;2.10;79.80;;;0.44;73.49;96316.88;4991887;28;20006;-68
2022/02/24 03:45:16;;;;;;;;;;;2.10;79.70;;;0.46;73.51;96307.28;4991304;28;19921;-68
2022/02/24 03:47:41;;;;;;;;;;;2.20;79.70;;;0.48;72.97;96305.38;5008747;28;19921;-68
2022/02/24 03:50:08;;;;;;;;;;;2.20;79.50;;;0.47;73.53;96308.91;4990422;28;19976;-67
2022/02/24 03:52:33;;;;;;;;;;;2.20;79.40;;;0.48;73.18;96307.16;4991608;28;19918;-67
2022/02/24 03:54:59;;;;;;;;;;;2.20;79.40;;;0.51;74.60;96309.50;5007471;28;19949;-67
2022/02/24 03:57:25;;;;;;;;;;;2.30;79.10;;;0.53;73.82;96298.06;4991074;28;19968;-67
2022/02/24 03:59:51;;;;;;;;;;;2.40;78.70;;;0.56;73.53;96295.22;5009015;28;19921;-68
2022/02/24 04:02:16;;;;;;;;;;;2.40;78.50;;;0.58;73.87;96295.09;5008001;28;20296;-67
2022/02/24 04:04:42;;;;;;;;;;;2.40;78.40;;;0.58;73.94;96293.34;5008312;28;19975;-67
2022/02/24 04:07:08;;;;;;;;;;;2.40;78.50;;;0.59;73.76;96287.22;4991216;28;20479;-67
2022/02/24 04:09:33;;;;;;;;;;;2.40;78.60;;;0.57;73.33;96289.09;4975050;28;20351;-67
2022/02/24 04:11:59;;;;;;;;;;;2.40;78.80;;;0.61;74.15;96285.31;5007293;28;20187;-67
2022/02/24 04:14:25;;;;;;;;;;;2.50;78.40;;;0.64;72.81;96288.59;4976561;28;19932;-67
2022/02/24 04:16:50;;;;;;;;;;;2.50;78.20;;;0.61;73.72;96280.16;4990610;28;20408;-67
2022/02/24 04:19:16;;;;;;;;;;;2.40;78.30;;;0.65;73.64;96274.72;4991118;28;19967;-68
2022/02/24 04:21:42;;;;;;;;;;;2.60;78.30;;;0.67;73.29;96275.41;5007287;28;19944;-68
2022/02/24 04:24:08;;;;;;;;;;;2.50;78.20;;;0.63;73.98;96266.25;5006721;28;19976;-67
2022/02/24 04:26:33;;;;;;;;;;;2.40;78.80;;;0.65;73.71;96266.94;4990917;28;19929;-67
2022/02/24 04:28:59;;;;;;;;;;;2.40;78.80;;;0.66;73.26;96260.81;4991486;28;20409;-67
2022/02/24 04:31:25;;;;;;;;;;;2.40;78.70;;;0.67;74.33;96262.47;4986393;28;19921;-67
2022/02/24 04:33:51;;;;;;;;;;;2.50;78.80;;;0.70;74.63;96260.47;4990706;28;20389;-67
2022/02/24 04:36:16;;;;;;;;;;;2.60;78.60;;;0.73;75.08;96259.41;5006415;28;19932;-67
2022/02/24 04:38:42;;;;;;;;;;;2.60;78.90;;;0.76;74.60;96253.97;4974646;28;19928;-68
2022/02/24 04:41:08;;;;;;;;;;;2.70;78.90;;;0.78;74.11;96254.66;5006796;28;19975;-66
2022/02/24 04:43:33;;;;;;;;;;;2.70;78.80;;;0.81;74.31;96249.22;4991290;28;20408;-66
2022/02/24 04:45:59;;;;;;;;;;;2.70;78.80;;;0.83;75.23;96252.53;5006647;28;19933;-67
2022/02/24 04:48:25;;;;;;;;;;;2.80;78.80;;;0.88;74.68;96245.19;4989992;28;19968;-66
2022/02/24 04:50:51;;;;;;;;;;;2.80;78.90;;;0.89;74.61;96252.00;4990857;28;19927;-66
2022/02/24 04:53:16;;;;;;;;;;;2.80;78.90;;;0.92;74.69;96241.44;4990129;28;19982;-66
2022/02/24 04:55:42;;;;;;;;;;;2.80;78.90;;;0.91;74.81;96239.78;4989727;28;19967;-66
2022/02/24 04:58:08;;;;;;;;;;;2.80;79.10;;;0.92;74.97;96241.44;5007838;28;19933;-65
2022/02/24 05:00:33;;;;;;;;;;;2.80;79.00;;;0.94;74.89;96234.34;4990717;28;20420;-66
2022/02/24 05:02:59;;;;;;;;;;;2.80;79.20;;;0.93;75.14;96231.88;4974024;28;19936;-66
2022/02/24 05:05:25;;;;;;;;;;;2.80;79.60;;;0.93;76.36;96222.34;4973853;28;19940;-66
2022/02/24 05:07:51;;;;;;;;;;;2.80;79.70;;;0.93;74.77;96232.72;5023172;28;20320;-66
2022/02/24 05:10:16;;;;;;;;;;;2.80;79.70;;;0.97;75.51;96228.09;4975220;28;19924;-66
2022/02/24 05:12:43;;;;;;;;;;;2.90;79.60;;;0.98;74.78;96225.38;4994599;28;20020;-66
2022/02/24 05:15:09;;;;;;;;;;;2.90;79.40;;;1.00;75.37;96225.25;4993695;28;20389;-66
2022/02/24 05:17:35;;;;;;;;;;;2.90;79.20;;;1.02;74.63;96226.75;5010606;28;19936;-66
2022/02/24 05:20:00;;;;;;;;;;;3.00;78.70;;;1.02;74.74;96226.75;4993544;28;19961;-66
2022/02/24 05:22:26;;;;;;;;;;;3.00;78.50;;;1.05;74.79;96218.72;4993730;28;19917;-66
2022/02/24 05:24:52;;;;;;;;;;;3.00;78.10;;;1.05;74.72;96210.13;4994140;28;19917;-66
2022/02/24 05:27:18;;;;;;;;;;;3.00;77.90;;;1.04;74.81;96213.69;4977333;28;19922;-67
2022/02/24 05:29:43;;;;;;;;;;;3.00;78.00;;;1.03;74.26;96206.84;4994274;28;19926;-67
2022/02/24 05:32:09;;;;;;;;;;;3.00;77.80;;;1.04;74.68;96204.13;5009461;28;20004;-66
2022/02/24 05:34:35;;;;;;;;;;;3.00;77.50;;;1.04;74.07;96204.13;4993791;28;19925;-66
2022/02/24 05:37:00;;;;;;;;;;;3.00;78.40;;;1.02;75.60;96203.44;4993450;28;19926;-66
2022/02/24 05:39:26;;;;;;;;;;;2.90;79.10;;;1.01;75.13;96208.75;5010164;28;19986;-68
2022/02/24 05:41:52;;;;;;;;;;;2.90;79.30;;;1.02;75.06;96211.22;4993917;28;19928;-66
2022/02/24 05:44:18;;;;;;;;;;;2.90;79.20;;;1.04;74.93;96204.13;4993236;28;19979;-66
2022/02/24 05:46:44;;;;;;;;;;;2.90;79.10;;;1.06;75.41;96210.00;5010100;28;20385;-66
2022/02/24 05:49:11;;;;;;;;;;;2.90;79.00;;;1.07;75.33;96208.25;5009441;28;20063;-66
2022/02/24 05:51:37;;;;;;;;;;;3.00;78.70;;;1.08;75.12;96202.94;5009809;28;19922;-66
2022/02/24 05:54:03;;;;;;;;;;;3.00;78.60;;;1.08;75.58;96200.34;4993532;28;19933;-66
2022/02/24 05:56:29;;;;;;;;;;;3.00;78.40;;;1.08;74.47;96205.53;5010910;28;19929;-66
2022/02/24 05:58:54;;;;;;;;;;;3.10;78.00;;;1.09;74.48;96206.34;4993648;28;19945;-66
2022/02/24 06:01:20;;;;;;;;;;;3.10;78.10;;;1.09;74.46;96207.16;5025847;28;19921;-67
2022/02/24 06:03:46;;;;;;;;;;;3.00;77.80;;;1.10;74.58;96207.97;4993225;28;19928;-68
2022/02/24 06:06:11;;;;;;;;;;;3.10;77.90;;;1.11;75.47;96205.25;5004417;28;19922;-67
2022/02/24 06:08:37;;;;;;;;;;;3.10;78.10;;;1.13;75.28;96203.38;4992004;28;19971;-68
2022/02/24 06:11:03;;;;;;;;;;;3.10;78.00;;;1.15;75.12;96201.50;4992970;28;19927;-68
2022/02/24 06:13:28;;;;;;;;;;;3.10;77.70;;;1.18;74.92;96206.41;5009042;28;20317;-72
2022/02/24 06:15:54;;;;;;;;;;;3.20;78.40;;;1.22;77.27;96212.16;5010264;28;19925;-69
2022/02/24 06:18:20;;;;;;;;;;;3.30;79.20;;;1.26;76.80;96200.56;5023498;28;19929;-65
2022/02/24 06:20:46;;;;;;;;;;;3.30;79.00;;;1.31;75.19;96205.38;4965504;28;19940;-66
2022/02/24 06:23:12;;;;;;;;;;;3.40;78.30;;;1.32;75.36;96197.47;4991871;28;19945;-66
2022/02/24 06:25:38;;;;;;;;;;;3.40;77.60;;;1.33;75.04;96198.28;4976201;28;19929;-66
2022/02/24 06:28:04;;;;;;;;;;;3.40;76.90;;;1.33;74.44;96187.91;4992712;28;19931;-67
2022/02/24 06:30:29;;;;;;;;;;;3.40;77.00;;;1.35;74.04;96186.00;5007177;28;20724;-66
2022/02/24 06:32:55;;;;;;;;;;;3.40;76.80;;;1.39;74.06;96196.00;5010296;28;19926;-66
2022/02/24 06:35:21;;;;;;;;;;;3.50;76.80;;;1.40;74.61;96189.06;4997113;28;20397;-66
2022/02/24 06:37:46;;;;;;;;;;;3.50;76.80;;;1.40;74.70;96189.88;5006199;28;19925;-66
2022/02/24 06:40:12;;;;;;;;;;;3.50;76.40;;;1.43;74.62;96186.19;4975616;28;19925;-66
2022/02/24 06:42:38;;;;;;;;;;;3.60;76.40;;;1.45;74.18;96185.13;4991984;28;19929;-66
2022/02/24 06:45:04;;;;;;;;;;;3.60;76.50;;;1.49;74.29;96177.88;4992655;28;19933;-66
2022/02/24 06:47:32;;;;;;;;;;;3.60;76.40;;;1.54;74.96;96186.09;5024697;28;20195;-66
2022/02/24 06:49:57;;;;;;;;;;;3.70;76.40;;;1.56;74.61;96183.38;4992471;28;19925;-66
2022/02/24 06:52:23;;;;;;;;;;;3.70;76.20;;;1.59;74.38;96178.75;4992024;28;20377;-66
2022/02/24 06:54:49;;;;;;;;;;;3.70;76.10;;;1.64;74.83;96176.59;4992019;28;20238;-66
2022/02/24 06:57:14;;;;;;;;;;;3.80;76.30;;;1.73;74.78;96180.97;5009288;28;20393;-66
2022/02/24 06:59:40;;;;;;;;;;;4.00;77.00;;;1.79;74.14;96177.84;5009874;28;19921;-66
2022/02/24 07:02:06;;;;;;;;;;;4.10;75.90;;;1.87;74.57;96169.41;5023329;28;19921;-67
2022/02/24 07:04:34;;;;;;;;;;;4.10;75.60;;;1.94;74.66;96174.88;4991944;28;20359;-68
2022/02/24 07:07:00;;;;;;;;;;;4.20;75.30;;;2.00;74.16;96180.34;4992145;28;20020;-67
2022/02/24 07:09:26;;;;;;;;;;;4.30;75.00;;;2.06;73.29;96177.22;4975345;28;20457;-68
2022/02/24 07:11:52;;;;;;;;;;;4.40;74.60;;;2.13;73.64;96174.91;5009503;28;19976;-69
2022/02/24 07:14:18;;;;;;;;;;;4.50;74.40;;;2.19;73.18;96176.97;4991098;28;19921;-69
2022/02/24 07:16:44;;;;;;;;;;;4.60;74.20;;;2.29;73.82;96170.00;4991759;28;19925;-70
2022/02/24 07:19:10;;;;;;;;;;;4.70;74.20;;;2.39;73.64;96178.59;4975179;28;19921;-69
2022/02/24 07:21:36;;;;;;;;;;;4.90;73.80;;;2.49;72.66;96177.78;4992191;28;20484;-68
2022/02/24 07:24:02;;;;;;;;;;;5.00;73.10;;;2.57;73.47;96164.94;4975404;28;19996;-69
2022/02/24 07:26:28;;;;;;;;;;;5.20;72.70;;;2.69;72.67;96167.25;5009093;28;19929;-69
2022/02/24 07:28:53;;;;;;;;;;;5.40;72.20;;;2.83;72.65;96162.59;4992146;28;19922;-68
2022/02/24 07:31:19;;;;;;;;;;;5.60;71.50;;;2.95;71.92;96164.06;4991759;28;20405;-72
2022/02/24 07:33:44;;;;;;;;;;;5.70;70.80;;;3.07;72.65;96150.75;4973319;28;19922;-71
2022/02/24 07:36:10;;;;;;;;;;;6.00;70.40;;;3.23;71.44;96157.16;4990721;28;19921;-69
2022/02/24 07:38:36;;;;;;;;;;;6.20;69.80;;;3.37;71.54;96151.47;4991457;28;19921;-67
2022/02/24 07:41:01;;;;;;;;;;;6.40;69.00;;;3.53;71.48;96156.88;4991777;28;19922;-73
2022/02/24 07:43:27;;;;;;;;;;;6.60;68.30;;;3.69;70.65;96154.50;4991795;28;19922;-68
2022/02/24 07:45:53;;;;;;;;;;;6.90;67.20;;;3.86;69.51;96144.28;5007190;28;19922;-69
2022/02/24 07:48:18;;;;;;;;;;;7.00;66.30;;;3.97;69.71;96149.25;4990768;28;19925;-67
2022/02/24 07:50:44;;;;;;;;;;;7.10;65.90;;;4.10;69.29;96147.13;4991521;28;19925;-67
2022/02/24 07:53:10;;;;;;;;;;;7.10;65.80;;;4.22;69.49;96145.94;4991249;28;20431;-67
2022/02/24 07:55:35;;;;;;;;;;;7.40;65.60;;;4.40;68.79;96152.94;5023286;28;19944;-66
2022/02/24 07:58:01;;;;;;;;;;;7.60;64.70;;;4.50;68.82;96138.84;4967687;28;19926;-66
2022/02/24 08:00:27;;;;;;;;;;;7.70;64.90;;;4.67;67.57;96144.19;4982887;28;19925;-68
2022/02/24 08:02:55;;;;;;;;;;;8.00;63.40;;;4.81;68.49;96139.25;4989536;28;19922;-66
2022/02/24 08:05:20;;;;;;;;;;;8.20;62.90;;;4.99;67.12;96138.41;4990513;28;20304;-66
2022/02/24 08:07:57;;;;;;;;;;;8.50;61.80;;;5.13;66.56;96137.81;4992828;28;19929;-64
2022/02/24 08:10:24;;;;;;;;;;;8.60;61.20;;;5.30;65.95;96130.91;4981959;28;19922;-65
2022/02/24 08:12:50;;;;;;;;;;;8.70;60.50;;;5.43;66.17;96124.31;4991489;28;19917;-65
2022/02/24 08:15:20;;;;;;;;;;;8.90;60.20;;;5.50;64.88;96124.50;4990430;28;19922;-66
2022/02/24 08:17:46;;;;;;;;;;;8.60;59.30;;;5.53;63.94;96122.38;5007407;28;19933;-66
2022/02/24 08:20:12;;;;;;;;;;;8.60;59.30;;;5.57;63.33;96125.50;5007017;28;19968;-66
2022/02/24 08:22:39;;;;;;;;;;;8.70;58.70;;;5.63;64.51;96121.44;5007646;28;20077;-66
2022/02/24 08:25:05;;;;;;;;;;;8.90;58.40;;;5.68;64.17;96122.63;5023705;28;20273;-66
2022/02/24 08:27:31;;;;;;;;;;;9.00;57.70;;;5.73;63.08;96122.13;5024192;28;19924;-65
2022/02/24 08:30:00;;;;;;;;;;;9.00;57.70;;;5.79;62.42;96121.50;4991050;28;19922;-65
2022/02/24 08:32:26;;;;;;;;;;;9.10;57.30;;;5.79;63.94;96117.09;4990987;28;20432;-66
2022/02/24 08:34:51;;;;;;;;;;;9.00;57.70;;;5.84;64.01;96124.44;5007419;28;20000;-65
2022/02/24 08:37:17;;;;;;;;;;;9.10;57.40;;;5.96;63.15;96112.78;4990871;28;19921;-66
2022/02/24 08:39:43;;;;;;;;;;;9.40;56.80;;;6.12;62.66;96110.19;4975208;28;19921;-65
2022/02/24 08:42:08;;;;;;;;;;;9.60;55.40;;;6.23;63.16;96113.47;4990534;28;20017;-66
2022/02/24 08:44:34;;;;;;;;;;;9.80;55.50;;;6.37;62.53;96099.78;4990710;28;19925;-66
2022/02/24 08:47:00;;;;;;;;;;;10.40;54.40;;;6.54;62.68;96100.56;5011913;28;19921;-66
2022/02/24 08:49:25;;;;;;;;;;;10.60;53.80;;;6.75;62.73;96088.63;4977649;28;19932;-67
2022/02/24 08:51:51;;;;;;;;;;;10.80;53.30;;;7.01;62.09;96092.84;4977532;28;19928;-65
2022/02/24 08:54:17;;;;;;;;;;;11.30;52.10;;;7.28;61.73;96089.84;4987696;28;19925;-70
2022/02/24 08:56:44;;;;;;;;;;;11.70;51.10;;;7.61;60.96;96079.22;5024346;28;20369;-71
2022/02/24 08:59:10;;;;;;;;;;;12.30;49.50;;;7.95;59.15;96081.53;5010568;28;19936;-72
2022/02/24 09:01:35;;;;;;;;;;;12.60;47.60;;;8.30;59.51;96069.66;4993622;28;20304;-70
2022/02/24 09:04:01;;;;;;;;;;;13.30;46.80;;;8.65;58.41;96072.69;4992657;28;19921;-71
2022/02/24 09:06:27;;;;;;;;;;;13.60;45.50;;;8.99;57.70;96078.25;5008828;28;20301;-68
2022/02/24 09:08:52;;;;;;;;;;;14.00;44.50;;;9.37;56.65;96067.69;4992177;28;19933;-68
2022/02/24 09:11:21;;;;;;;;;;;14.40;43.40;;;9.70;56.16;96068.91;4992973;28;19918;-68
2022/02/24 09:13:47;;;;;;;;;;;14.80;42.50;;;10.08;55.59;96063.47;5009074;28;19922;-68
2022/02/24 09:16:13;;;;;;;;;;;15.30;41.90;;;10.42;54.48;96058.38;5008251;28;19928;-68
2022/02/24 09:18:38;;;;;;;;;;;15.40;41.40;;;10.73;54.26;96062.47;5025772;28;19928;-69
2022/02/24 09:21:04;;;;;;;;;;;15.70;40.90;;;11.02;53.68;96064.09;5026119;28;19922;-70
2022/02/24 09:23:30;;;;;;;;;;;16.00;40.20;;;11.31;52.31;96057.78;5009325;28;19928;-72
2022/02/24 09:25:56;;;;;;;;;;;16.30;39.20;;;11.56;52.45;96051.06;5009160;28;19992;-69
2022/02/24 09:28:22;;;;;;;;;;;16.40;39.30;;;11.82;52.04;96047.72;4992122;28;20411;-70
2022/02/24 09:30:47;;;;;;;;;;;16.80;38.50;;;12.18;50.70;96038.69;4976653;28;19929;-69
2022/02/24 09:33:13;;;;;;;;;;;17.70;37.10;;;12.56;51.79;96037.13;4960149;28;19922;-70
2022/02/24 09:35:39;;;;;;;;;;;18.30;36.10;;;12.86;49.50;96037.50;4992882;28;19984;-70
2022/02/24 09:38:04;;;;;;;;;;;18.50;35.00;;;13.10;49.11;96033.41;5009220;28;20277;-70
2022/02/24 09:40:30;;;;;;;;;;;18.60;34.40;;;13.26;48.89;96026.91;4991578;28;19925;-71
2022/02/24 09:42:56;;;;;;;;;;;18.80;34.10;;;13.49;48.33;96029.09;5009201;28;19940;-71
2022/02/24 09:45:22;;;;;;;;;;;19.50;33.40;;;13.70;48.15;96028.00;5024652;28;19929;-71
2022/02/24 09:47:48;;;;;;;;;;;20.00;32.20;;;13.94;47.92;96018.53;5009294;28;19933;-70
2022/02/24 09:50:14;;;;;;;;;;;20.30;31.80;;;14.18;47.70;96020.41;4975073;28;20124;-70
2022/02/24 09:52:40;;;;;;;;;;;21.30;31.10;;;14.48;48.03;96015.34;5009443;28;19921;-70
2022/02/24 09:55:06;;;;;;;;;;;22.00;29.90;;;14.82;47.18;96016.72;5025214;28;19929;-70
2022/02/24 09:57:31;;;;;;;;;;;22.80;28.90;;;15.26;46.26;96012.22;5010217;28;19926;-70
2022/02/24 09:59:57;;;;;;;;;;;23.60;27.80;;;15.66;45.67;96006.50;4992706;28;19926;-71
2022/02/24 10:02:23;;;;;;;;;;;23.70;27.30;;;16.05;45.33;96010.47;5025040;28;19925;-71
2022/02/24 10:05:24;;;;;;;;;;;23.90;27.00;;;16.60;45.13;95997.00;5008622;28;19928;-71
2022/02/24 10:07:52;;;;;;;;;;;24.20;26.60;;;17.00;44.23;95986.53;4936985;28;19977;-71
2022/02/24 10:10:31;;;;;;;;;;;25.00;25.70;;;17.52;43.90;95975.94;4984590;28;19921;-70
2022/02/24 10:13:11;;;;;;;;;;;26.40;24.20;;;18.15;42.71;95975.84;4992263;28;19926;-70
2022/02/24 10:15:41;;;;;;;;;;;28.00;22.20;;;18.83;42.45;95969.56;4977040;28;19976;-70
2022/02/24 10:18:16;;;;;;;;;;;29.10;21.00;;;19.54;41.00;95975.88;4991785;28;20368;-70
2022/02/24 10:20:50;;;;;;;;;;;29.70;20.70;;;20.15;40.24;95976.56;5024176;28;19922;-70
2022/02/24 10:23:17;;;;;;;;;;;30.60;19.70;;;20.60;39.02;95972.72;5008152;28;19921;-72
2022/02/24 10:25:44;;;;;;;;;;;30.60;19.60;;;20.87;38.97;95971.84;4992170;28;19925;-70
2022/02/24 10:28:31;;;;;;;;;;;30.20;18.80;;;21.13;38.79;95962.94;5009747;28;19953;-71
2022/02/24 10:30:57;;;;;;;;;;;30.30;19.10;;;21.33;38.26;95954.25;5009680;28;19925;-70
2022/02/24 10:33:29;;;;;;;;;;;30.10;19.10;;;21.54;37.25;95947.13;4992026;28;19940;-70
2022/02/24 10:36:07;;;;;;;;;;;30.60;18.70;;;21.75;39.84;95943.44;4990864;28;19932;-70
2022/02/24 10:38:33;;;;;;;;;;;30.90;18.30;;;21.93;40.19;95942.13;5008967;28;20009;-71
2022/02/24 10:40:59;;;;;;;;;;;30.60;18.60;;;22.05;37.23;95939.25;4975658;28;19925;-71
2022/02/24 10:43:26;;;;;;;;;;;30.80;19.10;;;22.20;36.38;95928.59;5024238;28;19940;-70
2022/02/24 10:46:17;;;;;;;;;;;31.50;18.80;;;22.54;36.43;95931.53;4990980;28;20613;-69
2022/02/24 10:48:51;;;;;;;;;;;32.50;17.90;;;23.09;41.77;95937.94;4989246;28;19933;-68
2022/02/24 10:51:21;;;;;;;;;;;33.80;16.50;;;23.62;34.20;95914.97;5005596;28;19967;-66
2022/02/24 10:53:57;;;;;;;;;;;34.70;16.00;;;24.13;35.28;95909.31;4973366;28;19983;-65
2022/02/24 10:56:22;;;;;;;;;;;35.60;15.50;;;24.53;32.88;95907.44;5003864;28;19929;-68
2022/02/24 10:58:48;;;;;;;;;;;34.90;15.30;;;24.68;34.29;95896.53;4991971;28;19918;-72
2022/02/24 11:01:20;;;;;;;;;;;34.20;15.60;;;24.76;38.62;95890.53;5007376;28;20077;-67
2022/02/24 11:03:51;;;;;;;;;;;34.00;15.50;;;24.95;33.46;95883.34;4991394;28;20405;-65
2022/02/24 11:06:18;;;;;;;;;;;34.60;15.50;;;25.11;33.65;95881.31;4973441;28;19943;-66
2022/02/24 11:08:44;;;;;;;;;;;33.80;15.70;;;25.22;35.70;95882.81;4991723;28;19918;-67
2022/02/24 11:11:16;;;;;;;;;;;34.50;15.20;;;25.38;34.73;95869.97;5023724;28;19922;-66
2022/02/24 11:13:42;;;;;;;;;;;35.00;15.00;;;25.37;32.07;95867.56;4976243;28;20381;-66
2022/02/24 11:16:07;;;;;;;;;;;34.10;15.30;;;25.59;31.67;95865.94;4989910;28;19921;-69
2022/02/24 11:18:33;;;;;;;;;;;35.30;14.70;;;25.51;31.67;95863.88;5008900;28;20399;-67
2022/02/24 11:20:59;;;;;;;;;;;34.30;15.00;;;25.36;30.36;95866.78;4997750;28;19932;-67
2022/02/24 11:23:24;;;;;;;;;;;33.70;15.30;;;25.54;31.22;95863.28;5006410;28;19926;-67
2022/02/24 11:25:58;;;;;;;;;;;34.80;14.90;;;25.84;30.68;95854.03;5023636;28;19929;-67